Terminal Aerodrome Forecast
Issued by NWS

Home | Current Version | Previous Version | Text Only | Print | Product List | Glossary On
Versions: 1 2 3 4 5 6 7 8 9 10 11 12 13 14 15
494
FTUS44 KBMX 290221 AAA
TAFEET
TAF AMD
KEET 290221Z 2902/2924 16006KT P6SM SCT060 SCT250
     FM290800 16006KT P6SM OVC015
     FM291000 16006KT P6SM OVC007
     FM291500 16012G20KT P6SM SCT040 SCT250=

USA.gov is the U.S. government's official web portal to all federal, state and local government web resources and services.